Flight Track Log - Related Links

Times and Time Zones

All times are in EDT time to prevent confusion due to time zone crossing. See the EJA831 flight status page for this flight to view local times or setup timezone preferences in your user account.

Time Position Orientation Groundspeed Altitude Reporting Facility
EDT Latitude Longitude Course Direction KTS MPH feet Rate Location/Type
Sat 11:20:41 AM 30.4914 -86.4144 12° North 235 270 6,000  Level Jacksonville Center
Sat 11:21:41 AM 30.5469 -86.3633 38° Northeast 235 270 9,000 3,050 Climbing Jacksonville Center
Sat 11:22:41 AM 30.6244 -86.3614 North 242 278 12,100 2,750 Climbing Jacksonville Center
Sat 11:23:41 AM 30.7006 -86.3231 23° Northeast 262 302 14,500 2,300 Climbing Jacksonville Center
Sat 11:24:41 AM 30.7792 -86.2728 29° Northeast 292 336 16,700 2,100 Climbing Jacksonville Center
Sat 11:25:00 AM 31.0342 -86.0053 12° North  Level Estimated
Sat 11:25:41 AM 30.8619 -86.2225 28° Northeast 317 365 18,700  Level Jacksonville Center
Sat 11:26:41 AM 30.9489 -86.1697 27° Northeast 333 383 20,200 1,500 Climbing Jacksonville Center
Sat 11:27:41 AM 31.0378 -86.1147 28° Northeast 344 396 21,700 1,450 Climbing Jacksonville Center
Sat 11:28:41 AM 31.1250 -86.0594 28° Northeast 351 404 23,100 1,450 Climbing Jacksonville Center
Sat 11:29:41 AM 31.2181 -86.0019 28° Northeast 363 418 24,600 1,500 Climbing Jacksonville Center
Sat 11:31:29 AM 31.3758 -85.8994 29° Northeast 377 434 27,300 1,500 Climbing Atlanta Center
Sat 11:32:29 AM 31.4664 -85.8428 28° Northeast 377 434 28,800 1,500 Climbing Atlanta Center
Sat 11:33:29 AM 31.5589 -85.7839 28° Northeast 371 427 30,300 1,550 Climbing Atlanta Center
Sat 11:34:29 AM 31.6475 -85.7269 29° Northeast 371 427 31,900 1,650 Climbing Atlanta Center
Sat 11:35:29 AM 31.7381 -85.6700 28° Northeast 371 427 33,600 1,500 Climbing Atlanta Center
Sat 11:36:29 AM 31.8264 -85.6131 29° Northeast 365 420 34,900 700 Climbing Atlanta Center
Sat 11:37:29 AM 31.9189 -85.5533 29° Northeast 365 420 35,000 50 Climbing Atlanta Center
Sat 11:38:29 AM 32.0200 -85.4867 29° Northeast 386 444 35,000  Level Atlanta Center
Sat 11:39:29 AM 32.1231 -85.4219 28° Northeast 405 466 35,000  Level Atlanta Center
Sat 11:40:29 AM 32.2281 -85.3525 29° Northeast 418 481 35,000  Level Atlanta Center
Sat 11:41:29 AM 32.3331 -85.2828 29° Northeast 418 481 35,000  Level Atlanta Center
Sat 11:42:29 AM 32.4361 -85.2178 28° Northeast 423 487 35,000  Level Atlanta Center
Sat 11:43:29 AM 32.5369 -85.1378 34° Northeast 417 480 35,000  Level Atlanta Center
Sat 11:44:29 AM 32.6275 -85.0453 41° Northeast 427 491 35,000  Level Atlanta Center
Sat 11:45:29 AM 32.7222 -84.9572 38° Northeast 427 491 35,000  Level Atlanta Center
Sat 11:46:29 AM 32.8272 -84.8669 36° Northeast 425 489 35,000  Level Atlanta Center
Sat 11:47:29 AM 32.9236 -84.7739 39° Northeast 425 489 35,000  Level Atlanta Center
Sat 11:48:29 AM 33.0078 -84.6903 40° Northeast 430 495 35,000  Level Atlanta Center
Sat 11:49:29 AM 33.1022 -84.5992 39° Northeast 430 495 35,000  Level Atlanta Center
Sat 11:50:29 AM 33.1944 -84.5056 40° Northeast 430 495 35,000 -50 Level Atlanta Center
Sat 11:51:29 AM 33.2886 -84.4142 39° Northeast 430 495 34,900 -750 Descending Atlanta Center
Sat 11:52:29 AM 33.3806 -84.3225 40° Northeast 425 489 33,500 -1,300 Descending Atlanta Center
Sat 11:53:29 AM 33.4603 -84.2106 49° Northeast 425 489 32,300 -1,100 Descending Atlanta Center
Sat 11:54:29 AM 33.5375 -84.0961 51° Northeast 438 504 31,300 -650 Descending Atlanta Center
Sat 11:55:29 AM 33.6169 -83.9789 51° Northeast 449 517 31,000 -150 Descending Atlanta Center
Sat 11:56:29 AM 33.6939 -83.8667 50° Northeast 444 511 31,000  Level Atlanta Center
Sat 11:57:29 AM 33.7731 -83.7464 52° Northeast 444 511 31,000  Level Atlanta Center
Sat 11:58:29 AM 33.8519 -83.6311 50° Northeast 444 511 31,000  Level Atlanta Center
Sat 11:59:29 AM 33.9414 -83.5106 48° Northeast 444 511 31,000  Level Atlanta Center
Sat 12:00:29 PM 34.0453 -83.4397 29° Northeast 425 489 31,000 -400 Level Atlanta Center
Sat 12:01:29 PM 34.1472 -83.3736 28° Northeast 420 483 30,200 -1,200 Descending Atlanta Center
Sat 12:02:29 PM 34.2511 -83.3075 28° Northeast 413 475 28,600 -1,600 Descending Atlanta Center
Sat 12:03:29 PM 34.3572 -83.2386 28° Northeast 418 481 27,000 -1,650 Descending Atlanta Center
Sat 12:04:29 PM 34.4611 -83.1772 26° Northeast 418 481 25,300 -1,650 Descending Atlanta Center
Sat 12:05:29 PM 34.5567 -83.1106 30° Northeast 400 460 23,700 -1,600 Descending Atlanta Center
Sat 12:06:29 PM 34.6583 -83.0489 27° Northeast 395 455 22,100 -1,650 Descending Atlanta Center
Sat 12:07:29 PM 34.7497 -82.9847 30° Northeast 384 442 20,400 -1,950 Descending Atlanta Center
Sat 12:08:29 PM 34.8411 -82.9253 28° Northeast 370 426 18,200 -1,950 Descending Atlanta Center
Sat 12:09:29 PM 34.9200 -82.8836 23° Northeast 363 418 16,500 -2,200 Descending Atlanta Center
Sat 12:10:29 PM 35.0111 -82.8214 29° Northeast 363 418 13,800 -2,300 Descending Atlanta Center
Sat 12:11:29 PM 35.0919 -82.7694 28° Northeast 349 402 11,900 -1,400 Descending Atlanta Center
Sat 12:12:29 PM 35.1667 -82.7228 27° Northeast 322 371 11,000 -1,050 Descending Atlanta Center
Sat 12:13:29 PM 35.2411 -82.6681 31° Northeast 310 357 9,800 -1,800 Descending Atlanta Center
Sat 12:14:29 PM 35.3053 -82.6264 28° Northeast 280 322 7,400 -2,050 Descending Atlanta Center
Sat 12:15:29 PM 35.3800 -82.5767 28° Northeast 264 304 5,700 11,800 Descending Atlanta Center
Sat 12:16:29 PM 35.4461 -82.5322 29° Northeast 264 304 31,000 12,650 Climbing Atlanta Center
Sat 12:17:29 PM 35.5144 -82.4850 29° Northeast 264 304 31,000  Level Atlanta Center
Sat 12:18:29 PM 35.5536 -82.4586 29° Northeast 264 304 31,000  Level Atlanta Center
Sat 12:20:00 PM 35.4333 -82.5333 210° Southwest  Level FlightAware Approximate
Sat 12:27:00 PM 35.4362 -82.5418 210° Southwest  Level Estimated

Login

Don't have an account? Register now (free) for customized features, flight alerts, and more!